Whitten, Iowa
Current Conditions -  °F | °C
As of 1:53 PM on Saturday 25 Oct 2014 (Local Time) from KMIW Reporting Station
Clear Clear  
Wind Chill: 68°   Ceiling: Unl
Heat Index: 68°   Visibility: 10mi
Dew Point: 37°   Wind: 14mph
Humidity: 32%   Direction: 350°N
Pressure: 30.08"   Gusts: NA
Location:  42.26°N, 93.01°W
Report Text: KMIW 251853Z AUTO 35012KT 10SM CLR 20/03 A3008 RMK AO2 SLP184 T02000028
Loading
Personal Weather Stations






























Interactive Weather Map New forecast layout! Learn more

10-Day Weather Forecast

Advertisements
Track Severe Weather on mobile